Time;durP1;ratioP1;P1;durP2;ratioP2;P2;SDS_P1;SDS_P2;PMS_P1;PMS_P2;Temp;Humidity;BMP_temperature;BMP_pressure;BME280_temperature;BME280_humidity;BME280_pressure;Samples;Min_cycle;Max_cycle;Signal;HPM_P1;HPM_P2
2022/04/12 00:00:30;;;;;;;29.52;27.52;;;8.70;75.10;;;;;;5071986;28;20196;-74
2022/04/12 00:02:57;;;;;;;29.25;27.40;;;8.60;75.00;;;;;;5072535;28;20302;-74
2022/04/12 00:05:25;;;;;;;30.35;28.17;;;8.60;75.10;;;;;;5072449;28;20304;-74
2022/04/12 00:07:52;;;;;;;30.98;28.73;;;8.60;75.20;;;;;;5072849;28;20192;-74
2022/04/12 00:10:19;;;;;;;30.08;28.00;;;8.60;75.20;;;;;;5071565;28;20287;-74
2022/04/12 00:12:47;;;;;;;28.50;26.70;;;8.60;75.20;;;;;;5072560;28;20559;-74
2022/04/12 00:15:14;;;;;;;30.17;28.23;;;8.60;75.40;;;;;;5072287;28;20202;-74
2022/04/12 00:20:27;;;;;;;29.55;27.50;;;8.60;75.10;;;;;;5071964;28;20284;-74
2022/04/12 00:22:54;;;;;;;29.85;27.85;;;8.70;74.80;;;;;;5072296;28;20262;-74
2022/04/12 00:25:22;;;;;;;29.52;27.58;;;8.70;75.00;;;;;;5072413;28;20756;-74
2022/04/12 00:27:52;;;;;;;29.85;27.85;;;8.60;75.30;;;;;;5072429;28;20198;-74
2022/04/12 00:30:20;;;;;;;29.58;27.58;;;8.40;76.50;;;;;;5071823;28;20199;-74
2022/04/12 00:32:50;;;;;;;29.70;27.70;;;8.30;76.50;;;;;;5071758;28;20215;-74
2022/04/12 00:35:17;;;;;;;29.50;27.25;;;8.30;76.30;;;;;;5072295;28;20242;-74
2022/04/12 00:37:44;;;;;;;29.98;27.90;;;8.30;76.80;;;;;;5072195;28;20192;-74
2022/04/12 00:40:13;;;;;;;30.27;28.15;;;8.30;76.40;;;;;;5072102;28;20726;-74
2022/04/12 00:42:40;;;;;;;28.75;26.67;;;8.30;76.20;;;;;;5072120;28;20719;-74
2022/04/12 00:45:09;;;;;;;30.27;28.23;;;8.20;76.50;;;;;;5072202;28;20196;-74
2022/04/12 00:47:36;;;;;;;29.27;27.27;;;8.20;76.50;;;;;;5071964;28;20283;-74
2022/04/12 00:50:03;;;;;;;29.80;27.88;;;8.20;76.70;;;;;;5071412;28;20198;-74
2022/04/12 00:52:32;;;;;;;29.30;27.40;;;8.20;76.70;;;;;;5071910;28;20259;-74
2022/04/12 00:54:58;;;;;;;29.52;27.45;;;8.20;76.80;;;;;;5071860;28;20210;-74
2022/04/12 00:57:26;;;;;;;29.40;27.13;;;8.10;77.00;;;;;;5071937;28;20291;-74
2022/04/12 00:59:54;;;;;;;29.73;27.63;;;8.00;77.20;;;;;;5071534;28;20585;-74
2022/04/12 01:02:24;;;;;;;29.48;27.48;;;8.00;77.30;;;;;;5071844;28;20203;-74
2022/04/12 01:04:51;;;;;;;29.27;27.38;;;8.00;77.40;;;;;;5071690;28;20732;-74
2022/04/12 01:07:19;;;;;;;29.42;27.48;;;8.00;77.40;;;;;;5071680;28;20218;-74
2022/04/12 01:09:46;;;;;;;29.55;27.75;;;8.00;77.30;;;;;;5071258;28;20695;-74
2022/04/12 01:12:13;;;;;;;29.58;27.58;;;8.00;77.30;;;;;;5071420;28;20196;-74
2022/04/12 01:14:40;;;;;;;30.23;28.25;;;7.90;77.50;;;;;;5071757;28;20794;-74
2022/04/12 01:17:08;;;;;;;28.52;26.63;;;7.90;77.40;;;;;;5071614;28;20271;-74
2022/04/12 01:19:36;;;;;;;29.95;27.77;;;8.00;77.20;;;;;;5071353;28;20284;-74
2022/04/12 01:22:05;;;;;;;29.58;27.67;;;7.90;77.10;;;;;;5071600;28;20244;-74
2022/04/12 01:24:34;;;;;;;29.80;27.80;;;8.00;77.10;;;;;;5071735;28;20204;-74
2022/04/12 01:27:02;;;;;;;28.25;26.20;;;8.00;77.00;;;;;;5071365;28;20285;-74
2022/04/12 01:29:34;;;;;;;29.65;27.45;;;7.90;77.30;;;;;;5071172;28;20200;-74
2022/04/12 01:32:02;;;;;;;29.35;27.35;;;7.80;77.60;;;;;;5071802;28;20260;-74
2022/04/12 01:34:29;;;;;;;28.33;26.52;;;7.70;78.20;;;;;;5071496;28;20345;-74
2022/04/12 01:36:56;;;;;;;30.35;27.90;;;7.60;78.50;;;;;;5071491;28;20194;-74
2022/04/12 01:39:23;;;;;;;30.17;28.17;;;7.70;78.50;;;;;;5070955;28;20230;-74
2022/04/12 01:41:51;;;;;;;28.98;27.17;;;7.60;78.40;;;;;;5071648;28;20197;-74
2022/04/12 01:44:18;;;;;;;29.70;27.67;;;7.60;78.50;;;;;;5072436;28;20578;-74
2022/04/12 01:46:45;;;;;;;29.85;27.85;;;7.60;78.50;;;;;;5075068;28;20693;-74
2022/04/12 01:49:12;;;;;;;28.63;26.88;;;7.50;78.80;;;;;;5074324;28;20238;-74
2022/04/12 01:51:39;;;;;;;29.20;27.05;;;7.50;78.60;;;;;;5074938;28;20527;-74
2022/04/12 01:54:06;;;;;;;29.55;27.65;;;7.50;78.80;;;;;;5075027;28;20270;-74
2022/04/12 01:56:33;;;;;;;28.60;26.80;;;7.40;78.80;;;;;;5075051;28;20198;-74
2022/04/12 01:59:02;;;;;;;29.27;27.38;;;7.40;78.90;;;;;;5074725;28;20200;-75
2022/04/12 02:01:29;;;;;;;29.00;27.20;;;7.40;78.90;;;;;;5074472;28;20198;-74
2022/04/12 02:03:56;;;;;;;27.67;25.80;;;7.50;78.50;;;;;;5074791;28;20223;-74
2022/04/12 02:06:23;;;;;;;28.20;26.38;;;7.60;78.30;;;;;;5074830;28;20225;-74
2022/04/12 02:08:50;;;;;;;28.35;26.45;;;7.70;77.90;;;;;;5074879;28;20199;-74
2022/04/12 02:11:17;;;;;;;28.30;26.30;;;7.50;78.20;;;;;;5073710;28;20294;-74
2022/04/12 02:13:44;;;;;;;28.02;26.10;;;7.40;78.60;;;;;;5074697;28;20251;-74
2022/04/12 02:16:12;;;;;;;28.40;26.67;;;7.40;78.90;;;;;;5074472;28;20285;-74
2022/04/12 02:18:39;;;;;;;29.48;27.48;;;7.30;78.80;;;;;;5074549;28;20196;-74
2022/04/12 02:21:06;;;;;;;27.35;25.50;;;7.30;79.10;;;;;;5074182;28;20207;-74
2022/04/12 02:23:33;;;;;;;29.75;27.52;;;7.20;79.40;;;;;;5074514;28;20261;-74
2022/04/12 02:26:00;;;;;;;29.75;27.75;;;7.20;79.50;;;;;;5074396;28;20220;-74
2022/04/12 02:28:27;;;;;;;29.08;27.02;;;7.10;79.60;;;;;;5074355;28;20280;-74
2022/04/12 02:30:54;;;;;;;28.70;26.70;;;7.10;79.80;;;;;;5073828;28;20247;-74
2022/04/12 02:33:22;;;;;;;28.50;26.60;;;7.10;79.80;;;;;;5074778;28;20223;-74
2022/04/12 02:35:49;;;;;;;28.20;26.35;;;7.10;79.80;;;;;;5074832;28;20207;-74
2022/04/12 02:38:16;;;;;;;29.25;27.27;;;7.10;79.80;;;;;;5075782;28;20237;-74
2022/04/12 02:40:43;;;;;;;28.83;26.92;;;7.00;80.10;;;;;;5074868;28;20294;-74
2022/04/12 02:43:09;;;;;;;28.80;26.73;;;6.90;80.50;;;;;;5075030;28;20256;-74
2022/04/12 02:45:36;;;;;;;28.55;26.70;;;6.90;80.60;;;;;;5074147;28;20746;-74
2022/04/12 02:48:04;;;;;;;28.27;26.30;;;6.90;80.60;;;;;;5074148;28;20277;-74
2022/04/12 02:50:33;;;;;;;28.95;26.90;;;6.90;80.50;;;;;;5073644;28;20661;-74
2022/04/12 02:52:59;;;;;;;29.60;27.50;;;6.90;80.60;;;;;;5074009;28;20697;-74
2022/04/12 02:55:26;;;;;;;29.00;27.10;;;6.80;80.70;;;;;;5073759;28;20196;-74
2022/04/12 02:57:53;;;;;;;28.52;26.63;;;6.80;80.70;;;;;;5073670;28;20556;-74
2022/04/12 03:00:20;;;;;;;31.45;29.50;;;6.80;80.80;;;;;;5073188;28;20215;-74
2022/04/12 03:02:47;;;;;;;28.92;27.02;;;6.80;80.90;;;;;;5073916;28;20731;-73
2022/04/12 03:05:14;;;;;;;28.52;26.52;;;6.80;81.00;;;;;;5073704;28;20695;-74
2022/04/12 03:07:42;;;;;;;30.13;28.13;;;6.80;81.00;;;;;;5073705;28;20582;-74
2022/04/12 03:10:10;;;;;;;29.30;27.27;;;6.80;81.00;;;;;;5072729;28;20287;-74
2022/04/12 03:12:37;;;;;;;30.83;28.73;;;6.80;81.10;;;;;;5073598;28;20305;-73
2022/04/12 03:15:06;;;;;;;28.20;26.30;;;6.70;81.10;;;;;;5073702;28;20378;-73
2022/04/12 03:17:32;;;;;;;28.20;26.38;;;6.70;81.00;;;;;;5073443;28;20227;-73
2022/04/12 03:19:59;;;;;;;30.15;28.05;;;6.70;81.20;;;;;;5072679;28;20203;-74
2022/04/12 03:22:26;;;;;;;29.65;27.60;;;6.70;81.20;;;;;;5073550;28;20200;-74
2022/04/12 03:24:55;;;;;;;30.05;28.05;;;6.70;81.20;;;;;;5073404;28;20197;-74
2022/04/12 03:27:22;;;;;;;30.33;28.25;;;6.70;81.00;;;;;;5073193;28;20220;-73
2022/04/12 03:29:48;;;;;;;27.25;25.30;;;6.70;81.20;;;;;;5072655;28;20206;-74
2022/04/12 03:32:15;;;;;;;30.27;28.20;;;6.80;81.00;;;;;;5073367;28;20765;-73
2022/04/12 03:34:44;;;;;;;28.38;26.27;;;6.70;81.00;;;;;;5073134;28;20242;-73
2022/04/12 03:37:11;;;;;;;31.85;29.63;;;6.70;81.00;;;;;;5073574;28;20233;-73
2022/04/12 03:39:38;;;;;;;30.48;28.48;;;6.70;81.10;;;;;;5072684;28;20210;-73
2022/04/12 03:42:11;;;;;;;28.23;26.33;;;6.60;81.30;;;;;;5073139;28;20196;-73
2022/04/12 03:44:38;;;;;;;30.40;28.25;;;6.60;81.40;;;;;;5073177;28;20232;-73
2022/04/12 03:47:05;;;;;;;29.67;27.48;;;6.60;81.40;;;;;;5073092;28;20230;-73
2022/04/12 03:49:32;;;;;;;29.00;26.35;;;6.60;81.50;;;;;;5072508;28;20567;-73
2022/04/12 03:51:59;;;;;;;31.52;29.35;;;6.60;81.60;;;;;;5072929;28;20206;-74
2022/04/12 03:54:26;;;;;;;30.98;28.92;;;6.70;81.50;;;;;;5072809;28;20224;-74
2022/04/12 03:56:53;;;;;;;30.00;28.10;;;6.70;81.60;;;;;;5072822;28;20289;-74
2022/04/12 03:59:21;;;;;;;30.00;28.15;;;6.70;81.60;;;;;;5072040;28;20207;-74
2022/04/12 04:01:49;;;;;;;29.23;27.02;;;6.70;81.70;;;;;;5072986;28;20224;-74
2022/04/12 04:04:16;;;;;;;28.33;26.40;;;6.70;81.50;;;;;;5072433;28;20769;-74
2022/04/12 04:06:43;;;;;;;29.52;27.63;;;6.70;81.50;;;;;;5072596;28;20247;-74
2022/04/12 04:09:10;;;;;;;28.85;26.95;;;6.70;81.40;;;;;;5071955;28;20576;-74
2022/04/12 04:11:40;;;;;;;30.17;28.27;;;6.70;81.40;;;;;;5072138;28;20291;-74
2022/04/12 04:14:09;;;;;;;28.30;26.40;;;6.70;80.70;;;;;;5072514;28;20293;-74
2022/04/12 04:16:38;;;;;;;29.08;26.98;;;6.70;80.80;;;;;;5072342;28;20198;-74
2022/04/12 04:19:08;;;;;;;29.15;26.95;;;6.70;80.90;;;;;;5072228;28;20569;-73
2022/04/12 04:21:35;;;;;;;31.95;29.52;;;6.60;81.20;;;;;;5072343;28;20210;-74
2022/04/12 04:24:03;;;;;;;28.90;26.88;;;6.60;81.40;;;;;;5072297;28;20219;-74
2022/04/12 04:26:30;;;;;;;30.48;28.58;;;6.60;81.50;;;;;;5072310;28;20198;-74
2022/04/12 04:28:57;;;;;;;30.45;28.35;;;6.60;81.60;;;;;;5072190;28;20199;-74
2022/04/12 04:31:23;;;;;;;30.20;28.20;;;6.60;81.90;;;;;;5071765;28;20205;-73
2022/04/12 04:33:52;;;;;;;30.15;28.13;;;6.50;81.90;;;;;;5072201;28;20310;-74
2022/04/12 04:36:19;;;;;;;30.48;28.48;;;6.50;82.00;;;;;;5072143;28;20206;-74
2022/04/12 04:38:45;;;;;;;31.30;29.08;;;6.50;82.20;;;;;;5072198;28;20298;-74
2022/04/12 04:41:12;;;;;;;30.67;28.67;;;6.40;82.10;;;;;;5071645;28;20199;-74
2022/04/12 04:43:39;;;;;;;29.83;27.92;;;6.40;82.00;;;;;;5072213;28;20214;-74
2022/04/12 04:46:06;;;;;;;29.60;27.50;;;6.50;82.20;;;;;;5072123;28;20197;-74
2022/04/12 04:48:33;;;;;;;28.38;26.38;;;6.50;82.00;;;;;;5071787;28;20218;-73
2022/04/12 04:51:01;;;;;;;32.83;30.73;;;6.50;82.10;;;;;;5071802;28;20291;-73
2022/04/12 04:53:28;;;;;;;30.13;28.23;;;6.50;82.60;;;;;;5072086;28;20249;-74
2022/04/12 04:55:55;;;;;;;28.73;26.80;;;6.60;82.30;;;;;;5072066;28;20207;-73
2022/04/12 04:58:22;;;;;;;29.73;27.63;;;6.60;82.30;;;;;;5072040;28;20193;-74
2022/04/12 05:00:49;;;;;;;32.70;30.35;;;6.70;81.70;;;;;;5071470;28;20210;-73
2022/04/12 05:03:16;;;;;;;30.70;28.70;;;6.70;81.40;;;;;;5071812;28;20220;-74
2022/04/12 05:05:42;;;;;;;28.88;26.88;;;6.60;81.30;;;;;;5071901;28;20197;-74
2022/04/12 05:08:11;;;;;;;30.23;28.13;;;6.60;81.40;;;;;;5071902;28;20313;-74
2022/04/12 05:10:37;;;;;;;32.17;30.08;;;6.70;81.50;;;;;;5070784;28;20205;-73
2022/04/12 05:13:04;;;;;;;29.85;27.75;;;6.70;81.20;;;;;;5072010;28;20219;-74
2022/04/12 05:15:31;;;;;;;32.65;30.45;;;6.80;80.60;;;;;;5071654;28;20206;-74
2022/04/12 05:17:58;;;;;;;35.25;32.65;;;6.80;80.70;;;;;;5071781;28;20283;-74
2022/04/12 05:20:26;;;;;;;29.95;27.35;;;6.90;80.60;;;;;;5073982;28;20242;-74
2022/04/12 05:22:54;;;;;;;31.02;28.73;;;6.90;81.40;;;;;;5075564;28;20581;-74
2022/04/12 05:25:22;;;;;;;31.17;28.80;;;6.90;81.80;;;;;;5075761;28;20195;-74
2022/04/12 05:27:49;;;;;;;30.00;27.80;;;7.00;81.00;;;;;;5075484;28;20226;-74
2022/04/12 05:30:17;;;;;;;30.00;27.60;;;7.00;80.50;;;;;;5074877;28;20206;-74
2022/04/12 05:32:44;;;;;;;30.52;28.52;;;7.10;80.40;;;;;;5075363;28;20557;-74
2022/04/12 05:35:12;;;;;;;30.70;28.52;;;7.30;79.80;;;;;;5075414;28;20750;-73
2022/04/12 05:37:43;;;;;;;32.78;30.02;;;7.40;79.50;;;;;;5075472;28;20223;-74
2022/04/12 05:40:11;;;;;;;28.77;26.77;;;7.50;79.30;;;;;;5074761;28;20206;-74
2022/04/12 05:42:40;;;;;;;29.58;27.60;;;7.60;79.10;;;;;;5075381;28;20332;-74
2022/04/12 05:45:08;;;;;;;31.33;29.25;;;7.60;78.90;;;;;;5075200;28;20287;-73
2022/04/12 05:47:42;;;;;;;32.38;29.98;;;7.70;78.60;;;;;;5075134;28;20310;-74
2022/04/12 05:50:10;;;;;;;31.70;29.35;;;7.90;78.10;;;;;;5074587;28;20199;-74
2022/04/12 05:52:38;;;;;;;30.35;27.80;;;8.00;77.70;;;;;;5075071;28;20222;-74
2022/04/12 05:55:07;;;;;;;30.55;28.42;;;7.90;77.30;;;;;;5074877;28;20615;-74
2022/04/12 05:57:36;;;;;;;30.75;28.75;;;8.00;77.10;;;;;;5075204;28;20595;-74
2022/04/12 06:00:07;;;;;;;30.38;27.98;;;8.20;76.60;;;;;;5074594;28;20555;-75
2022/04/12 06:02:34;;;;;;;33.88;31.55;;;8.30;76.00;;;;;;5075144;28;20226;-75
2022/04/12 06:05:01;;;;;;;31.83;29.13;;;8.40;75.80;;;;;;5074707;28;20203;-75
2022/04/12 06:07:32;;;;;;;30.38;28.17;;;8.50;75.40;;;;;;5074866;28;20216;-75
2022/04/12 06:10:00;;;;;;;33.17;30.92;;;8.70;75.30;;;;;;5074105;28;20197;-75
2022/04/12 06:12:27;;;;;;;30.52;28.45;;;8.80;74.80;;;;;;5074374;28;20207;-75
2022/04/12 06:14:54;;;;;;;31.17;29.10;;;8.90;74.60;;;;;;5074551;28;20200;-75
2022/04/12 06:17:22;;;;;;;31.35;29.15;;;9.00;74.40;;;;;;5074436;28;20559;-75
2022/04/12 06:19:49;;;;;;;32.78;30.67;;;9.10;74.20;;;;;;5074079;28;20199;-75
2022/04/12 06:22:16;;;;;;;30.88;28.55;;;9.40;73.70;;;;;;5074436;28;20293;-75
2022/04/12 06:24:43;;;;;;;31.23;29.13;;;9.40;72.70;;;;;;5074521;28;20287;-75
2022/04/12 06:27:10;;;;;;;34.50;31.58;;;9.50;72.60;;;;;;5074370;28;20226;-75
2022/04/12 06:29:37;;;;;;;31.60;29.25;;;9.60;72.00;;;;;;5073692;28;20288;-75
2022/04/12 06:32:04;;;;;;;32.53;29.80;;;9.80;71.70;;;;;;5073392;28;20254;-75
2022/04/12 06:34:32;;;;;;;32.97;30.60;;;9.90;71.60;;;;;;5074103;28;20220;-75
2022/04/12 06:36:59;;;;;;;30.92;28.73;;;10.10;71.00;;;;;;5074337;28;20196;-75
2022/04/12 06:39:26;;;;;;;32.70;30.53;;;10.10;70.70;;;;;;5073566;28;20712;-75
2022/04/12 06:41:53;;;;;;;31.40;29.20;;;10.20;70.50;;;;;;5074292;28;20457;-75
2022/04/12 06:44:20;;;;;;;32.43;30.30;;;10.40;70.20;;;;;;5074169;28;20840;-75
2022/04/12 06:46:47;;;;;;;32.53;30.33;;;10.50;69.80;;;;;;5074214;28;20873;-75
2022/04/12 06:49:14;;;;;;;32.20;29.73;;;10.70;69.60;;;;;;5073342;28;20528;-75
2022/04/12 06:51:43;;;;;;;30.53;28.63;;;10.90;68.70;;;;;;5074030;28;20454;-75
2022/04/12 06:54:10;;;;;;;31.00;28.90;;;11.00;68.00;;;;;;5074278;28;20471;-75
2022/04/12 06:56:36;;;;;;;32.37;30.07;;;11.20;66.90;;;;;;5073920;28;20456;-75
2022/04/12 06:59:03;;;;;;;32.87;30.67;;;11.30;66.50;;;;;;5073561;28;20478;-75
2022/04/12 07:01:30;;;;;;;30.67;28.77;;;11.40;64.90;;;;;;5073307;28;20956;-75
2022/04/12 07:03:57;;;;;;;35.93;33.73;;;11.60;64.80;;;;;;5073474;28;20561;-75
2022/04/12 07:06:24;;;;;;;31.13;28.90;;;11.70;64.60;;;;;;5073659;28;20455;-75
2022/04/12 07:08:52;;;;;;;33.53;31.23;;;11.80;64.30;;;;;;5073496;28;21011;-75
2022/04/12 07:11:20;;;;;;;31.83;29.73;;;12.00;64.20;;;;;;5072588;28;20995;-75
2022/04/12 07:13:47;;;;;;;30.87;28.57;;;12.20;63.20;;;;;;5073351;28;20470;-75
2022/04/12 07:16:14;;;;;;;31.03;29.03;;;12.30;62.20;;;;;;5073631;28;20486;-75
2022/04/12 07:18:41;;;;;;;32.87;30.87;;;12.40;62.10;;;;;;5073217;28;20482;-75
2022/04/12 07:21:08;;;;;;;29.97;27.97;;;12.40;61.80;;;;;;5073057;28;20793;-75
2022/04/12 07:23:36;;;;;;;31.23;28.93;;;12.50;62.00;;;;;;5073346;28;20554;-75
2022/04/12 07:26:04;;;;;;;32.43;29.90;;;12.70;61.60;;;;;;5073286;28;20542;-75
2022/04/12 07:28:32;;;;;;;30.10;28.00;;;12.70;61.50;;;;;;5073069;28;20475;-75
2022/04/12 07:30:58;;;;;;;30.93;28.93;;;12.90;61.10;;;;;;5072384;28;20551;-75
2022/04/12 07:33:25;;;;;;;30.17;28.17;;;13.00;60.50;;;;;;5073110;28;20565;-75
2022/04/12 07:35:52;;;;;;;32.33;30.23;;;13.10;60.30;;;;;;5072896;28;20550;-75
2022/04/12 07:38:19;;;;;;;29.80;27.80;;;13.10;60.60;;;;;;5073011;28;20468;-75
2022/04/12 07:40:46;;;;;;;30.30;28.30;;;13.10;60.80;;;;;;5072509;28;20789;-75
2022/04/12 07:43:14;;;;;;;32.57;30.17;;;13.30;60.10;;;;;;5072548;28;20580;-75
2022/04/12 07:45:41;;;;;;;32.03;29.73;;;13.40;59.70;;;;;;5072717;28;20537;-75
2022/04/12 07:48:08;;;;;;;29.97;27.97;;;13.50;59.50;;;;;;5072823;28;20481;-75
2022/04/12 07:50:35;;;;;;;30.47;28.47;;;13.60;59.40;;;;;;5072439;28;20492;-75
2022/04/12 07:53:02;;;;;;;30.60;28.60;;;13.60;59.50;;;;;;5072524;28;20474;-75
2022/04/12 07:55:29;;;;;;;30.30;28.40;;;13.80;59.20;;;;;;5072636;28;20490;-75
2022/04/12 07:57:56;;;;;;;31.37;29.40;;;13.90;59.10;;;;;;5072430;28;20447;-75
2022/04/12 08:00:24;;;;;;;30.43;28.43;;;14.10;58.40;;;;;;5071952;28;20454;-75
2022/04/12 08:02:51;;;;;;;31.83;29.50;;;14.10;58.30;;;;;;5072535;28;20562;-75
2022/04/12 08:05:19;;;;;;;31.73;29.30;;;14.30;58.00;;;;;;5072424;28;20458;-75
2022/04/12 08:07:48;;;;;;;30.10;28.00;;;14.50;57.60;;;;;;5072279;28;20446;-75
2022/04/12 08:10:16;;;;;;;31.77;29.67;;;14.60;57.10;;;;;;5071568;28;20459;-75
2022/04/12 08:12:43;;;;;;;31.37;29.20;;;14.80;57.10;;;;;;5072225;28;20528;-75
2022/04/12 08:15:11;;;;;;;30.60;28.53;;;15.00;56.40;;;;;;5072563;28;20819;-75
2022/04/12 08:17:40;;;;;;;32.53;30.37;;;15.20;56.00;;;;;;5072066;28;20537;-75
2022/04/12 08:20:09;;;;;;;31.57;29.30;;;15.40;55.20;;;;;;5071619;28;20539;-75
2022/04/12 08:22:36;;;;;;;31.10;29.10;;;15.50;54.70;;;;;;5072213;28;20529;-75
2022/04/12 08:25:04;;;;;;;31.87;29.67;;;15.70;54.10;;;;;;5072193;28;20454;-75
2022/04/12 08:27:31;;;;;;;30.37;28.37;;;15.90;53.80;;;;;;5072033;28;20477;-75
2022/04/12 08:29:58;;;;;;;30.20;28.10;;;16.10;53.50;;;;;;5071458;28;20474;-75
2022/04/12 08:32:25;;;;;;;30.30;28.40;;;16.30;52.50;;;;;;5072024;28;20528;-75
2022/04/12 08:34:54;;;;;;;30.13;27.90;;;16.30;52.10;;;;;;5072244;28;20462;-75
2022/04/12 08:37:21;;;;;;;32.77;30.57;;;16.50;52.10;;;;;;5072108;28;20941;-75
2022/04/12 08:39:48;;;;;;;30.87;28.77;;;16.60;51.90;;;;;;5071490;28;20450;-75
2022/04/12 08:42:15;;;;;;;30.30;28.40;;;16.80;51.70;;;;;;5071664;28;20455;-75
2022/04/12 08:44:45;;;;;;;30.83;28.80;;;16.90;51.50;;;;;;5071779;28;20709;-75
2022/04/12 08:47:15;;;;;;;32.30;29.97;;;17.00;50.90;;;;;;5072094;28;20538;-75
2022/04/12 08:49:43;;;;;;;31.20;28.97;;;17.10;50.80;;;;;;5071180;28;20514;-76
2022/04/12 08:52:13;;;;;;;31.00;28.80;;;17.20;50.60;;;;;;5071573;28;20953;-75
2022/04/12 08:54:41;;;;;;;30.87;28.67;;;17.50;50.00;;;;;;5070838;28;20458;-75
2022/04/12 08:57:09;;;;;;;30.87;28.63;;;17.70;49.50;;;;;;5071536;28;21120;-76
2022/04/12 08:59:36;;;;;;;30.00;28.10;;;17.80;48.50;;;;;;5071060;28;20450;-75
2022/04/12 09:02:03;;;;;;;30.80;28.57;;;18.00;48.10;;;;;;5071652;28;20529;-76
2022/04/12 09:04:32;;;;;;;35.47;32.57;;;18.00;47.90;;;;;;5071537;28;20644;-75
2022/04/12 09:07:01;;;;;;;32.13;29.83;;;18.00;48.30;;;;;;5071665;28;20458;-75
2022/04/12 09:09:30;;;;;;;30.37;27.97;;;18.10;48.30;;;;;;5071106;28;20570;-75
2022/04/12 09:11:58;;;;;;;28.90;27.00;;;18.30;48.00;;;;;;5071162;28;20535;-76
2022/04/12 09:14:26;;;;;;;28.93;27.10;;;18.50;47.40;;;;;;5071656;28;20547;-76
2022/04/12 09:16:53;;;;;;;27.37;25.77;;;18.70;47.20;;;;;;5071762;28;20460;-75
2022/04/12 09:19:38;;;;;;;28.17;26.43;;;18.80;46.90;;;;;;5071304;28;20470;-75
2022/04/12 09:22:10;;;;;;;27.47;25.80;;;18.90;46.70;;;;;;5071857;28;20800;-76
2022/04/12 09:24:44;;;;;;;28.30;26.03;;;19.00;46.40;;;;;;5071681;28;20541;-76
2022/04/12 09:27:13;;;;;;;28.77;26.90;;;19.20;46.70;;;;;;5071741;28;20473;-76
2022/04/12 09:29:45;;;;;;;29.50;27.60;;;19.20;46.50;;;;;;5071022;28;20474;-76
2022/04/12 09:32:14;;;;;;;28.10;26.10;;;19.30;45.90;;;;;;5071583;28;20485;-76
2022/04/12 09:34:42;;;;;;;28.93;26.57;;;19.50;45.60;;;;;;5071610;28;20484;-76
2022/04/12 09:37:24;;;;;;;27.27;25.40;;;19.70;45.20;;;;;;5071540;28;20457;-76
2022/04/12 09:40:04;;;;;;;28.03;25.50;;;19.70;45.20;;;;;;5070974;28;20479;-76
2022/04/12 09:42:42;;;;;;;28.47;26.57;;;19.90;44.80;;;;;;5071327;28;20553;-76
2022/04/12 09:45:10;;;;;;;26.93;25.23;;;19.90;44.70;;;;;;5071469;28;20493;-76
2022/04/12 09:47:37;;;;;;;27.83;25.93;;;19.90;44.70;;;;;;5071457;28;20817;-76
2022/04/12 09:50:06;;;;;;;29.13;27.43;;;20.10;44.00;;;;;;5070845;28;21003;-76
2022/04/12 09:52:33;;;;;;;32.63;26.63;;;20.20;44.00;;;;;;5071388;28;20531;-76
2022/04/12 09:55:01;;;;;;;27.43;25.73;;;20.30;43.70;;;;;;5071351;28;20990;-76
2022/04/12 09:57:28;;;;;;;27.10;25.30;;;20.40;43.50;;;;;;5071951;28;20447;-76
2022/04/12 09:59:56;;;;;;;26.80;25.20;;;20.40;43.30;;;;;;5071116;28;20450;-75
2022/04/12 10:02:24;;;;;;;29.90;26.43;;;20.50;43.00;;;;;;5071914;28;20476;-76
2022/04/12 10:04:53;;;;;;;30.13;27.83;;;20.50;43.00;;;;;;5071460;28;20454;-76
2022/04/12 10:07:22;;;;;;;26.60;24.90;;;20.60;42.60;;;;;;5075375;28;20458;-76
2022/04/12 10:09:50;;;;;;;31.27;29.43;;;20.60;42.20;;;;;;5075109;28;20481;-76
2022/04/12 10:12:19;;;;;;;33.60;28.00;;;20.70;41.80;;;;;;5074483;28;20469;-75
2022/04/12 10:14:46;;;;;;;30.37;25.87;;;20.80;41.90;;;;;;5074555;28;20556;-76
2022/04/12 10:17:14;;;;;;;27.13;25.23;;;20.80;41.60;;;;;;5074457;28;20539;-76
2022/04/12 10:19:41;;;;;;;29.43;27.40;;;20.80;41.60;;;;;;5073888;28;20451;-76
2022/04/12 10:22:09;;;;;;;26.43;24.70;;;20.90;41.30;;;;;;5074461;28;20457;-76
2022/04/12 10:24:37;;;;;;;28.13;25.70;;;21.00;41.30;;;;;;5074706;28;20670;-76
2022/04/12 10:27:05;;;;;;;29.20;26.80;;;21.00;41.40;;;;;;5074535;28;20920;-76
2022/04/12 10:29:33;;;;;;;32.90;30.67;;;21.10;41.20;;;;;;5073887;28;20587;-76
2022/04/12 10:32:01;;;;;;;25.87;24.17;;;21.10;41.30;;;;;;5074336;28;20529;-76
2022/04/12 10:34:28;;;;;;;26.50;24.53;;;21.10;41.40;;;;;;5074158;28;20561;-76
2022/04/12 10:37:08;;;;;;;26.60;25.00;;;21.10;41.40;;;;;;5074422;28;20457;-76
2022/04/12 10:39:39;;;;;;;26.90;25.00;;;21.20;41.10;;;;;;5073712;28;20446;-76
2022/04/12 10:42:13;;;;;;;24.90;23.50;;;21.30;40.70;;;;;;5074165;28;20450;-76
2022/04/12 10:44:43;;;;;;;25.57;23.97;;;21.20;41.00;;;;;;5074197;28;20449;-76
2022/04/12 10:47:25;;;;;;;25.93;24.33;;;21.30;40.90;;;;;;5074050;28;20462;-76
2022/04/12 10:49:57;;;;;;;27.57;25.80;;;21.30;40.80;;;;;;5073363;28;20478;-76
2022/04/12 10:52:43;;;;;;;25.80;24.07;;;21.30;40.50;;;;;;5074158;28;20477;-76
2022/04/12 10:55:11;;;;;;;27.30;25.40;;;21.30;40.80;;;;;;5074075;28;20451;-76
2022/04/12 10:57:38;;;;;;;26.40;24.80;;;21.30;40.40;;;;;;5073898;28;20486;-76
2022/04/12 11:00:10;;;;;;;26.90;25.30;;;21.40;40.40;;;;;;5073431;28;20450;-76
2022/04/12 11:02:39;;;;;;;29.27;27.17;;;21.50;40.50;;;;;;5073858;28;20470;-76
2022/04/12 11:05:07;;;;;;;26.20;24.60;;;21.60;40.80;;;;;;5073719;28;20465;-76
2022/04/12 11:07:37;;;;;;;25.43;23.77;;;21.70;40.40;;;;;;5073605;28;20998;-76
2022/04/12 11:10:22;;;;;;;26.70;25.00;;;21.90;40.30;;;;;;5073044;28;20478;-76
2022/04/12 11:12:51;;;;;;;26.90;25.30;;;22.00;39.80;;;;;;5073631;28;20463;-76
2022/04/12 11:15:24;;;;;;;27.07;25.43;;;22.20;39.80;;;;;;5073431;28;20465;-76
2022/04/12 11:18:04;;;;;;;26.17;24.57;;;22.30;39.40;;;;;;5072679;28;21011;-76
2022/04/12 11:20:32;;;;;;;28.53;27.10;;;22.50;39.30;;;;;;5072904;28;20446;-76
2022/04/12 11:23:00;;;;;;;28.03;26.23;;;22.50;39.20;;;;;;5073093;28;20466;-76
2022/04/12 11:25:27;;;;;;;27.07;25.37;;;22.70;39.00;;;;;;5073127;28;20447;-76
2022/04/12 11:27:57;;;;;;;27.77;26.13;;;22.80;38.80;;;;;;5073154;28;20462;-76
2022/04/12 11:30:27;;;;;;;26.93;25.17;;;23.00;38.90;;;;;;5072269;28;20474;-76
2022/04/12 11:32:56;;;;;;;27.00;25.30;;;23.00;39.00;;;;;;5073041;28;20490;-76
2022/04/12 11:35:24;;;;;;;26.33;24.70;;;23.30;38.40;;;;;;5073107;28;20462;-76
2022/04/12 11:37:51;;;;;;;25.10;23.60;;;23.30;37.80;;;;;;5073310;28;20815;-76
2022/04/12 11:40:18;;;;;;;26.53;24.93;;;23.50;37.50;;;;;;5072286;28;20455;-76
2022/04/12 11:42:45;;;;;;;26.80;25.30;;;23.50;37.90;;;;;;5073017;28;20477;-76
2022/04/12 11:45:12;;;;;;;26.93;25.33;;;23.60;37.10;;;;;;5072833;28;20453;-76
2022/04/12 11:47:44;;;;;;;26.63;24.93;;;23.60;37.40;;;;;;5072954;28;20485;-76
2022/04/12 11:50:18;;;;;;;27.97;26.27;;;23.70;37.60;;;;;;5072109;28;20481;-76
2022/04/12 11:52:46;;;;;;;26.37;24.70;;;23.90;37.60;;;;;;5072766;28;20478;-76
2022/04/12 11:55:13;;;;;;;28.87;26.90;;;24.00;37.10;;;;;;5072759;28;20454;-76
2022/04/12 11:57:40;;;;;;;27.47;25.67;;;24.10;37.10;;;;;;5072671;28;20461;-76
2022/04/12 12:00:08;;;;;;;27.10;25.50;;;24.20;37.20;;;;;;5072005;28;20816;-76
2022/04/12 12:02:39;;;;;;;27.10;25.40;;;24.30;37.00;;;;;;5072532;28;20994;-76
2022/04/12 12:05:11;;;;;;;28.30;26.60;;;24.40;36.90;;;;;;5072623;28;20450;-76
2022/04/12 12:07:39;;;;;;;26.23;24.73;;;24.50;36.70;;;;;;5072517;28;20460;-76
2022/04/12 12:10:11;;;;;;;27.33;25.73;;;24.50;36.30;;;;;;5071771;28;20486;-76
2022/04/12 12:12:39;;;;;;;27.70;26.00;;;24.60;36.60;;;;;;5071856;28;20506;-76
2022/04/12 12:15:17;;;;;;;26.33;24.70;;;24.70;36.50;;;;;;5072560;28;20449;-76
2022/04/12 12:17:45;;;;;;;26.27;24.57;;;24.90;36.60;;;;;;5072327;28;20548;-76
2022/04/12 12:20:14;;;;;;;27.50;25.90;;;25.10;36.50;;;;;;5071786;28;20457;-76
2022/04/12 12:22:43;;;;;;;27.40;25.70;;;25.10;36.40;;;;;;5072154;28;20480;-76
2022/04/12 12:25:18;;;;;;;26.73;25.13;;;25.20;36.20;;;;;;5072210;28;20500;-77
2022/04/12 12:27:50;;;;;;;28.10;26.30;;;25.30;36.40;;;;;;5072351;28;20463;-77
2022/04/12 12:30:19;;;;;;;25.50;24.10;;;25.50;36.40;;;;;;5070699;28;21104;-77
2022/04/12 12:32:46;;;;;;;28.30;26.23;;;25.60;36.30;;;;;;5072186;28;20510;-77
2022/04/12 12:35:16;;;;;;;27.23;25.37;;;25.70;36.00;;;;;;5072024;28;20468;-77
2022/04/12 12:37:44;;;;;;;27.10;25.20;;;25.70;36.10;;;;;;5072160;28;20456;-77
2022/04/12 12:40:20;;;;;;;26.57;25.00;;;25.80;36.00;;;;;;5071569;28;20542;-77